Time;durP1;ratioP1;P1;durP2;ratioP2;P2;SDS_P1;SDS_P2;PMS_P1;PMS_P2;Temp;Humidity;BMP_temperature;BMP_pressure;BME280_temperature;BME280_humidity;BME280_pressure;Samples;Min_cycle;Max_cycle;Signal;HPM_P1;HPM_P2
2022/09/27 00:01:39;;;;;;;20.45;18.25;;;14.40;99.90;;;;;;5092104;28;20231;-89
2022/09/27 00:04:28;;;;;;;22.35;19.35;;;14.40;99.90;;;;;;5094623;28;20225;-90
2022/09/27 00:07:16;;;;;;;24.63;20.50;;;14.40;99.90;;;;;;5092663;28;20226;-90
2022/09/27 00:10:05;;;;;;;23.67;20.58;;;14.40;99.90;;;;;;5090822;28;20719;-90
2022/09/27 00:12:55;;;;;;;24.20;21.60;;;14.40;99.90;;;;;;5090528;28;20224;-90
2022/09/27 00:15:43;;;;;;;23.67;20.20;;;14.30;99.90;;;;;;5077132;28;20239;-89
2022/09/27 00:18:33;;;;;;;26.33;22.15;;;14.30;99.90;;;;;;5091556;28;20215;-89
2022/09/27 00:21:21;;;;;;;24.67;20.85;;;14.30;99.90;;;;;;5091756;28;20219;-89
2022/09/27 00:24:12;;;;;;;25.92;20.73;;;14.30;99.90;;;;;;5089567;28;20250;-88
2022/09/27 00:27:01;;;;;;;25.55;22.10;;;14.40;99.90;;;;;;5075607;28;20246;-90
2022/09/27 00:29:51;;;;;;;25.02;21.52;;;14.40;99.90;;;;;;5090480;28;20243;-89
2022/09/27 00:32:39;;;;;;;24.77;21.67;;;14.40;99.90;;;;;;5097163;28;20307;-85
2022/09/27 00:35:28;;;;;;;27.50;22.73;;;14.40;99.90;;;;;;5091978;28;20216;-89
2022/09/27 00:38:18;;;;;;;24.88;22.20;;;14.40;99.90;;;;;;5091781;28;20336;-89
2022/09/27 00:41:06;;;;;;;27.33;23.02;;;14.40;99.90;;;;;;5090772;28;20222;-90
2022/09/27 00:43:57;;;;;;;26.85;22.85;;;14.30;99.90;;;;;;5090182;28;20314;-89
2022/09/27 00:46:51;;;;;;;30.63;24.17;;;14.30;99.90;;;;;;5073677;28;21354;-91
2022/09/27 00:49:43;;;;;;;25.25;22.35;;;14.30;99.90;;;;;;5089556;28;20270;-89
2022/09/27 00:52:38;;;;;;;29.48;23.50;;;14.40;99.90;;;;;;5088993;28;20302;-89
2022/09/27 00:55:30;;;;;;;27.20;23.15;;;14.30;99.90;;;;;;5091354;28;20223;-91
2022/09/27 00:58:21;;;;;;;26.73;22.60;;;14.30;99.90;;;;;;5075278;28;20219;-91
2022/09/27 01:01:11;;;;;;;27.75;22.85;;;14.30;99.90;;;;;;5074229;28;20216;-91
2022/09/27 01:04:05;;;;;;;29.63;22.95;;;14.30;99.90;;;;;;5090314;28;20282;-90
2022/09/27 01:06:54;;;;;;;26.10;22.17;;;14.30;99.90;;;;;;5088574;28;20305;-91
2022/09/27 01:09:43;;;;;;;26.77;23.48;;;14.20;99.90;;;;;;5079684;28;20238;-89
2022/09/27 01:12:42;;;;;;;27.48;22.08;;;14.20;99.90;;;;;;5085496;28;20234;-90
2022/09/27 01:15:39;;;;;;;29.20;23.10;;;14.10;99.90;;;;;;5090490;28;20215;-91
2022/09/27 01:18:32;;;;;;;27.02;22.77;;;14.10;99.90;;;;;;5089463;28;20216;-91
2022/09/27 01:21:45;;;;;;;27.02;22.08;;;14.10;99.90;;;;;;5073459;28;20300;-90
2022/09/27 01:24:55;;;;;;;26.85;22.98;;;14.10;99.90;;;;;;5090417;28;20219;-90
2022/09/27 01:28:10;;;;;;;29.58;23.23;;;14.20;99.90;;;;;;5073929;28;20252;-90
2022/09/27 01:31:04;;;;;;;26.90;22.65;;;14.10;99.90;;;;;;5073672;28;20235;-90
2022/09/27 01:34:02;;;;;;;29.02;23.77;;;14.10;99.90;;;;;;5071480;28;20212;-92
2022/09/27 01:36:56;;;;;;;29.00;23.08;;;14.10;99.90;;;;;;5068550;28;20231;-88
2022/09/27 01:39:49;;;;;;;31.05;24.48;;;14.10;99.90;;;;;;5070997;28;20284;-88
2022/09/27 01:42:58;;;;;;;33.22;25.83;;;14.10;99.90;;;;;;5085524;28;20228;-89
2022/09/27 01:45:55;;;;;;;30.63;24.23;;;14.10;99.90;;;;;;5083343;28;20749;-89
2022/09/27 01:49:09;;;;;;;33.30;24.98;;;14.00;99.90;;;;;;5085105;28;20266;-88
2022/09/27 01:52:02;;;;;;;34.60;25.58;;;14.10;99.90;;;;;;5050223;28;1069902;-89
2022/09/27 01:54:55;;;;;;;36.42;25.60;;;14.10;99.90;;;;;;5085200;28;20216;-89
2022/09/27 01:57:59;;;;;;;36.40;26.08;;;14.00;99.90;;;;;;5068225;28;20222;-88
2022/09/27 02:00:51;;;;;;;29.58;23.55;;;14.00;99.90;;;;;;5079543;28;20818;-88
2022/09/27 02:03:44;;;;;;;30.65;23.85;;;14.10;99.90;;;;;;5089990;28;20223;-88
2022/09/27 02:06:58;;;;;;;33.97;24.75;;;14.10;99.90;;;;;;5080963;28;20311;-91
2022/09/27 02:09:55;;;;;;;31.15;24.75;;;14.10;99.90;;;;;;5088146;28;20613;-90
2022/09/27 02:12:52;;;;;;;34.55;25.90;;;14.10;99.90;;;;;;5076186;28;20273;-90
2022/09/27 02:15:49;;;;;;;32.83;25.15;;;14.00;99.90;;;;;;5088347;28;20280;-89
2022/09/27 02:18:59;;;;;;;31.73;24.27;;;14.00;99.90;;;;;;5074592;28;20301;-87
2022/09/27 02:22:01;;;;;;;33.28;25.50;;;14.00;99.90;;;;;;5067820;28;20215;-88
2022/09/27 02:24:56;;;;;;;34.85;25.45;;;14.10;99.90;;;;;;5069881;28;20218;-89
2022/09/27 02:27:54;;;;;;;33.65;24.83;;;14.10;99.90;;;;;;5069959;28;20253;-88
2022/09/27 02:30:46;;;;;;;33.83;25.27;;;14.10;99.90;;;;;;5070035;28;20335;-89
2022/09/27 02:33:46;;;;;;;33.85;23.98;;;14.10;99.90;;;;;;5068488;28;20854;-88
2022/09/27 02:36:36;;;;;;;34.97;25.17;;;14.10;99.90;;;;;;5071236;28;20590;-88
2022/09/27 02:39:27;;;;;;;32.88;24.27;;;14.20;99.90;;;;;;5072242;28;20578;-89
2022/09/27 02:42:22;;;;;;;29.48;22.63;;;14.20;99.90;;;;;;5089729;28;20234;-88
2022/09/27 02:45:13;;;;;;;30.25;23.30;;;14.20;99.90;;;;;;5090777;28;20230;-90
2022/09/27 02:48:13;;;;;;;29.77;22.98;;;14.20;99.90;;;;;;5075935;28;20223;-90
2022/09/27 02:51:23;;;;;;;29.83;23.13;;;14.20;99.90;;;;;;5065802;28;20220;-90
2022/09/27 02:54:23;;;;;;;29.92;22.98;;;14.20;99.90;;;;;;5068540;28;20224;-89
2022/09/27 02:57:34;;;;;;;29.35;23.48;;;14.20;99.90;;;;;;5069378;28;20699;-89
2022/09/27 03:00:49;;;;;;;29.73;23.27;;;14.20;99.90;;;;;;5064894;28;20247;-82
2022/09/27 03:04:07;;;;;;;30.83;23.45;;;14.10;99.90;;;;;;5075574;28;20224;-91
2022/09/27 03:06:58;;;;;;;32.70;24.27;;;13.90;99.90;;;;;;5067399;28;20223;-88
2022/09/27 03:09:48;;;;;;;31.88;23.98;;;14.00;99.90;;;;;;5076359;28;20226;-89
2022/09/27 03:12:38;;;;;;;31.85;24.50;;;14.00;99.90;;;;;;5066221;28;20228;-90
2022/09/27 03:15:27;;;;;;;31.02;23.88;;;14.00;99.90;;;;;;5078474;28;20220;-87
2022/09/27 03:18:22;;;;;;;33.75;25.50;;;13.90;99.90;;;;;;5061451;28;20224;-87
2022/09/27 03:21:29;;;;;;;35.45;25.77;;;14.00;99.90;;;;;;5060355;28;20219;-87
2022/09/27 03:24:18;;;;;;;35.60;26.23;;;14.10;99.90;;;;;;5061058;28;20246;-88
2022/09/27 03:27:08;;;;;;;34.55;25.55;;;14.10;99.90;;;;;;5060405;28;20272;-89
2022/09/27 03:29:58;;;;;;;34.40;25.27;;;14.10;99.90;;;;;;5057158;28;20315;-88
2022/09/27 03:32:47;;;;;;;32.10;24.17;;;14.00;99.90;;;;;;5058290;28;20254;-86
2022/09/27 03:35:54;;;;;;;34.47;25.42;;;14.00;99.90;;;;;;5060141;28;20224;-87
2022/09/27 03:38:42;;;;;;;33.38;24.92;;;14.10;99.90;;;;;;5063438;28;20228;-87
2022/09/27 03:41:35;;;;;;;34.63;25.05;;;14.00;99.90;;;;;;5061972;28;20232;-87
2022/09/27 03:44:24;;;;;;;36.28;26.75;;;14.00;99.90;;;;;;5063987;28;20227;-88
2022/09/27 03:47:13;;;;;;;37.03;27.35;;;13.90;99.90;;;;;;5062109;28;20235;-87
2022/09/27 03:50:02;;;;;;;38.30;27.48;;;14.00;99.90;;;;;;5063855;28;20228;-87
2022/09/27 03:52:51;;;;;;;40.58;27.27;;;14.00;99.90;;;;;;5080141;28;20306;-87
2022/09/27 03:55:40;;;;;;;34.08;26.45;;;13.90;99.90;;;;;;5084583;28;20215;-87
2022/09/27 03:58:28;;;;;;;39.03;27.73;;;14.00;99.90;;;;;;5065603;28;20243;-87
2022/09/27 04:01:17;;;;;;;37.38;27.15;;;13.80;99.90;;;;;;5071454;28;20215;-90
2022/09/27 04:04:09;;;;;;;37.03;27.40;;;14.00;99.90;;;;;;5073650;28;20223;-88
2022/09/27 04:06:58;;;;;;;39.20;27.55;;;13.90;99.90;;;;;;5083432;28;20224;-88
2022/09/27 04:09:47;;;;;;;36.90;26.92;;;13.80;99.90;;;;;;5083873;28;20231;-88
2022/09/27 04:12:36;;;;;;;35.05;27.27;;;13.90;99.90;;;;;;5091023;28;20234;-89
2022/09/27 04:15:25;;;;;;;34.03;26.23;;;13.90;99.90;;;;;;5090347;28;20613;-89
2022/09/27 04:18:14;;;;;;;36.80;28.10;;;14.00;99.90;;;;;;5092379;28;20698;-90
2022/09/27 04:21:23;;;;;;;36.60;26.85;;;14.00;99.90;;;;;;5086166;28;20394;-89
2022/09/27 04:24:13;;;;;;;38.45;28.50;;;14.00;99.90;;;;;;5074957;28;20219;-89
2022/09/27 04:27:10;;;;;;;39.40;27.92;;;14.00;99.90;;;;;;5086833;28;20307;-88
2022/09/27 04:30:01;;;;;;;37.90;27.60;;;13.90;99.90;;;;;;5074006;28;20223;-90
2022/09/27 04:33:25;;;;;;;42.30;28.90;;;13.90;99.90;;;;;;5005381;28;20234;-88
2022/09/27 04:36:40;;;;;;;38.60;26.98;;;13.80;99.90;;;;;;5092221;28;20222;-88
2022/09/27 04:39:35;;;;;;;36.25;27.00;;;13.80;99.90;;;;;;5092820;28;20306;-90
2022/09/27 04:42:25;;;;;;;44.80;29.15;;;13.80;99.90;;;;;;5071002;28;20224;-89
2022/09/27 04:45:16;;;;;;;41.90;27.92;;;13.70;99.90;;;;;;5072159;28;20227;-90
2022/09/27 04:48:05;;;;;;;40.08;28.67;;;13.70;99.90;;;;;;5075876;28;20223;-89
2022/09/27 04:50:58;;;;;;;40.63;29.10;;;13.80;99.90;;;;;;5087903;28;20261;-88
2022/09/27 04:53:48;;;;;;;41.72;28.77;;;13.80;99.90;;;;;;5085662;28;20360;-88
2022/09/27 04:56:37;;;;;;;41.58;29.08;;;13.90;99.90;;;;;;5087700;28;20219;-90
2022/09/27 04:59:26;;;;;;;43.55;30.63;;;13.90;99.90;;;;;;5078569;28;20227;-90
2022/09/27 05:02:15;;;;;;;47.15;31.40;;;13.80;99.90;;;;;;5096603;28;20219;-90
2022/09/27 05:05:24;;;;;;;47.15;32.28;;;13.80;99.90;;;;;;5094378;28;20230;-88
2022/09/27 05:08:12;;;;;;;52.90;31.88;;;13.80;99.90;;;;;;5100873;28;20680;-89
2022/09/27 05:11:25;;;;;;;51.00;32.83;;;13.90;99.90;;;;;;5100071;28;20281;-90
2022/09/27 05:14:46;;;;;;;47.60;32.85;;;13.70;99.90;;;;;;5082588;28;20220;-90
2022/09/27 05:18:00;;;;;;;48.47;31.83;;;13.70;99.90;;;;;;5092699;28;20839;-90
2022/09/27 05:21:07;;;;;;;45.35;31.45;;;13.70;99.90;;;;;;5089498;28;20223;-90
2022/09/27 05:24:02;;;;;;;45.97;30.73;;;13.70;99.90;;;;;;5078142;28;20275;-92
2022/09/27 05:26:52;;;;;;;48.75;31.48;;;13.70;99.90;;;;;;5090822;28;20224;-92
2022/09/27 05:29:40;;;;;;;47.80;30.42;;;13.60;99.90;;;;;;5091245;28;20292;-91
2022/09/27 05:32:33;;;;;;;49.80;30.30;;;13.60;99.90;;;;;;5090001;28;20556;-93
2022/09/27 05:35:52;;;;;;;48.55;31.50;;;13.70;99.90;;;;;;5086074;28;20227;-84
2022/09/27 05:38:43;;;;;;;49.15;32.53;;;13.60;99.90;;;;;;5081117;28;20227;-86
2022/09/27 05:41:32;;;;;;;47.42;32.20;;;13.60;99.90;;;;;;5066220;28;20211;-87
2022/09/27 05:44:24;;;;;;;52.65;31.75;;;13.70;99.90;;;;;;5064509;28;20224;-86
2022/09/27 05:47:19;;;;;;;48.95;30.65;;;13.60;99.90;;;;;;5065533;28;20435;-85
2022/09/27 05:50:08;;;;;;;50.60;31.58;;;13.70;99.90;;;;;;5080843;28;20713;-89
2022/09/27 05:52:57;;;;;;;49.70;31.38;;;13.70;99.90;;;;;;5080506;28;20265;-83
2022/09/27 05:55:48;;;;;;;51.60;31.10;;;13.50;99.90;;;;;;5078823;28;20220;-83
2022/09/27 05:58:39;;;;;;;49.42;31.15;;;13.50;99.90;;;;;;5063357;28;20235;-82
2022/09/27 06:01:38;;;;;;;46.83;30.20;;;13.70;99.90;;;;;;5064765;28;20232;-81
2022/09/27 06:04:53;;;;;;;48.95;29.38;;;13.60;99.90;;;;;;5058676;28;20305;-80
2022/09/27 06:08:12;;;;;;;41.97;26.55;;;13.60;99.90;;;;;;5076068;28;20302;-80
2022/09/27 06:11:07;;;;;;;47.10;28.17;;;13.60;99.90;;;;;;5064946;28;20227;-82
2022/09/27 06:13:56;;;;;;;42.47;27.65;;;13.60;99.90;;;;;;5066391;28;20232;-87
2022/09/27 06:16:47;;;;;;;46.25;28.20;;;13.50;99.90;;;;;;5067978;28;21010;-85
2022/09/27 06:19:35;;;;;;;45.40;27.98;;;13.60;99.90;;;;;;5065566;28;20820;-88
2022/09/27 06:22:24;;;;;;;39.10;24.95;;;13.60;99.90;;;;;;5080779;28;20689;-89
2022/09/27 06:25:20;;;;;;;43.42;24.73;;;13.60;99.90;;;;;;5064959;28;20239;-87
2022/09/27 06:28:28;;;;;;;42.05;24.88;;;13.50;99.90;;;;;;5067258;28;20211;-91
2022/09/27 06:31:17;;;;;;;43.65;25.90;;;13.50;99.90;;;;;;5082154;28;20222;-87
2022/09/27 06:34:15;;;;;;;42.00;23.50;;;13.40;99.90;;;;;;5080732;28;20223;-87
2022/09/27 06:37:04;;;;;;;38.92;24.83;;;13.40;99.90;;;;;;5083964;28;20233;-89
2022/09/27 06:39:52;;;;;;;38.17;23.45;;;13.50;99.90;;;;;;5065570;28;20223;-87
2022/09/27 06:43:03;;;;;;;38.10;23.33;;;13.50;99.90;;;;;;5084162;28;20571;-87
2022/09/27 06:46:26;;;;;;;30.77;20.05;;;13.40;99.90;;;;;;5022178;28;20232;-85
2022/09/27 06:49:35;;;;;;;35.47;19.45;;;13.40;99.90;;;;;;5084447;28;20216;-88
2022/09/27 06:52:24;;;;;;;29.35;18.73;;;13.30;99.90;;;;;;5072675;28;20219;-88
2022/09/27 06:55:13;;;;;;;34.90;19.48;;;13.40;99.90;;;;;;5068019;28;20223;-88
2022/09/27 07:01:31;;;;;;;1375.20;193.15;;;13.30;99.90;;;;;;5069717;28;20240;-87
2022/09/27 07:04:40;;;;;;;262.05;39.50;;;13.20;99.90;;;;;;5085470;28;20216;-86
2022/09/27 07:07:38;;;;;;;40.38;20.10;;;13.20;99.90;;;;;;5071170;28;20258;-86
2022/09/27 07:10:29;;;;;;;32.90;19.88;;;13.30;99.90;;;;;;5071332;28;20227;-87
2022/09/27 07:13:17;;;;;;;35.92;19.77;;;13.30;99.90;;;;;;5066771;28;20235;-85
2022/09/27 07:16:07;;;;;;;37.38;20.30;;;13.40;99.90;;;;;;5080906;28;20211;-85
2022/09/27 07:18:55;;;;;;;1999.90;405.92;;;13.40;99.90;;;;;;5079485;28;20231;-88
2022/09/27 07:21:45;;;;;;;65.93;22.85;;;13.60;99.90;;;;;;5069872;28;20848;-87
2022/09/27 07:24:34;;;;;;;46.10;22.20;;;13.50;99.90;;;;;;5067131;28;20709;-84
2022/09/27 07:27:25;;;;;;;39.72;21.98;;;13.60;99.90;;;;;;5068476;28;20239;-86
2022/09/27 07:30:15;;;;;;;37.90;21.15;;;13.60;99.90;;;;;;5068267;28;20737;-86
2022/09/27 07:33:05;;;;;;;38.85;21.90;;;13.70;99.90;;;;;;5066440;28;20261;-84
2022/09/27 07:35:54;;;;;;;39.03;21.13;;;13.60;99.90;;;;;;5075531;28;20219;-84
2022/09/27 07:38:44;;;;;;;37.95;21.65;;;13.70;99.90;;;;;;5061690;28;20219;-83
2022/09/27 07:41:33;;;;;;;40.88;22.17;;;13.70;99.90;;;;;;5077538;28;20223;-83
2022/09/27 07:44:22;;;;;;;36.28;21.42;;;13.70;99.90;;;;;;5062431;28;20234;-85
2022/09/27 07:47:29;;;;;;;40.72;21.50;;;13.70;99.90;;;;;;5064453;28;20234;-85
2022/09/27 07:50:31;;;;;;;39.08;22.90;;;13.70;99.90;;;;;;5081316;28;20250;-88
2022/09/27 07:53:25;;;;;;;34.40;21.73;;;13.70;99.90;;;;;;5064210;28;20590;-85
2022/09/27 07:56:29;;;;;;;32.20;21.02;;;13.70;99.90;;;;;;5067643;28;20294;-87
2022/09/27 07:59:18;;;;;;;34.33;21.33;;;13.50;99.90;;;;;;5063114;28;20252;-88
2022/09/27 08:02:14;;;;;;;33.67;21.58;;;13.50;99.90;;;;;;5086463;28;20296;-88
2022/09/27 08:05:04;;;;;;;36.42;22.67;;;13.70;99.90;;;;;;5083930;28;20235;-89
2022/09/27 08:07:56;;;;;;;34.15;22.02;;;13.50;99.90;;;;;;5080459;28;20220;-85
2022/09/27 08:10:46;;;;;;;34.05;21.77;;;13.70;99.90;;;;;;5083729;28;20227;-84
2022/09/27 08:13:38;;;;;;;35.75;22.05;;;13.60;99.90;;;;;;5068800;28;20238;-84
2022/09/27 08:16:26;;;;;;;352.98;48.40;;;13.70;99.90;;;;;;5076960;28;20215;-87
2022/09/27 08:19:35;;;;;;;140.30;30.55;;;13.70;99.90;;;;;;5050470;28;20227;-83
2022/09/27 08:22:26;;;;;;;61.72;23.38;;;13.70;99.90;;;;;;5079929;28;20306;-84
2022/09/27 08:25:21;;;;;;;47.67;24.30;;;13.80;99.90;;;;;;5079631;28;20254;-87
2022/09/27 08:28:25;;;;;;;41.38;26.55;;;13.80;99.90;;;;;;5064156;28;20365;-84
2022/09/27 08:31:36;;;;;;;34.95;22.70;;;14.00;99.90;;;;;;5081007;28;20603;-81
2022/09/27 08:34:25;;;;;;;32.03;21.70;;;14.10;99.90;;;;;;5081436;28;20234;-83
2022/09/27 08:37:13;;;;;;;37.60;23.83;;;14.10;99.90;;;;;;5081112;28;20219;-85
2022/09/27 08:40:02;;;;;;;34.92;22.23;;;14.20;99.90;;;;;;5067585;28;20254;-87
2022/09/27 08:43:01;;;;;;;27.83;21.40;;;14.20;99.90;;;;;;5064367;28;20219;-86
2022/09/27 08:46:04;;;;;;;30.10;20.65;;;14.10;99.90;;;;;;5066946;28;20252;-86
2022/09/27 08:49:04;;;;;;;28.00;20.45;;;14.10;99.90;;;;;;5066575;28;20227;-85
2022/09/27 08:51:55;;;;;;;28.35;21.80;;;14.10;99.90;;;;;;5080564;28;20671;-86
2022/09/27 08:54:44;;;;;;;32.92;22.40;;;14.10;99.90;;;;;;5078859;28;20227;-85
2022/09/27 08:57:34;;;;;;;33.88;22.40;;;14.30;99.90;;;;;;5078727;28;20235;-84
2022/09/27 09:00:23;;;;;;;31.40;22.48;;;14.20;99.90;;;;;;5061729;28;20740;-84
2022/09/27 09:03:21;;;;;;;66.72;26.67;;;14.30;99.90;;;;;;5065732;28;20227;-84
2022/09/27 09:06:19;;;;;;;761.15;91.90;;;14.20;99.90;;;;;;5062700;28;20245;-84
2022/09/27 09:09:18;;;;;;;44.75;24.33;;;14.40;99.90;;;;;;5077936;28;20250;-84
2022/09/27 09:12:46;;;;;;;68.35;43.55;;;14.50;99.90;;;;;;5063035;28;20740;-84
2022/09/27 09:16:05;;;;;;;35.63;22.63;;;14.60;99.90;;;;;;5076880;28;20228;-83
2022/09/27 09:19:22;;;;;;;48.42;23.50;;;14.60;99.90;;;;;;5079551;28;20253;-84
2022/09/27 09:22:31;;;;;;;32.67;22.00;;;14.60;99.90;;;;;;5073643;28;20216;-83
2022/09/27 09:25:30;;;;;;;37.22;22.50;;;14.70;99.90;;;;;;5079380;28;20372;-85
2022/09/27 09:28:36;;;;;;;31.73;22.05;;;14.70;99.90;;;;;;5076295;28;20300;-84
2022/09/27 09:31:34;;;;;;;28.77;20.63;;;14.70;99.90;;;;;;5065969;28;20223;-84
2022/09/27 09:34:26;;;;;;;30.52;21.17;;;14.60;99.90;;;;;;5078817;28;20227;-83
2022/09/27 09:37:23;;;;;;;30.45;21.95;;;14.40;99.90;;;;;;5064847;28;21077;-84
2022/09/27 09:40:20;;;;;;;28.58;20.67;;;14.50;99.90;;;;;;5079377;28;20228;-84
2022/09/27 09:43:15;;;;;;;30.75;21.77;;;14.40;99.90;;;;;;5077699;28;20227;-83
2022/09/27 09:46:12;;;;;;;32.60;22.27;;;14.40;99.90;;;;;;5065773;28;21077;-83
2022/09/27 09:49:06;;;;;;;30.17;21.77;;;14.40;99.90;;;;;;5080408;28;20713;-83
2022/09/27 09:52:00;;;;;;;28.70;21.25;;;14.50;99.90;;;;;;5079496;28;20251;-84
2022/09/27 09:55:06;;;;;;;27.88;20.85;;;14.70;99.90;;;;;;5065561;28;20234;-84
2022/09/27 09:58:05;;;;;;;25.10;19.90;;;14.80;99.90;;;;;;5064730;28;20275;-83
2022/09/27 10:01:14;;;;;;;25.90;20.38;;;14.90;99.90;;;;;;5079487;28;20230;-83
2022/09/27 10:04:04;;;;;;;27.35;19.20;;;14.90;99.90;;;;;;5066878;28;20698;-84
2022/09/27 10:06:54;;;;;;;25.75;19.33;;;15.00;99.90;;;;;;5064764;28;20216;-84
2022/09/27 10:09:44;;;;;;;27.35;19.33;;;15.00;99.90;;;;;;5078676;28;20661;-84
2022/09/27 10:12:52;;;;;;;25.50;19.70;;;15.00;99.90;;;;;;5077183;28;20230;-83
2022/09/27 10:15:53;;;;;;;28.02;21.20;;;15.00;99.90;;;;;;5077628;28;20219;-83
2022/09/27 10:18:42;;;;;;;26.48;20.90;;;14.90;99.90;;;;;;5079565;28;20767;-83
2022/09/27 10:21:44;;;;;;;25.65;20.35;;;14.60;99.90;;;;;;5076149;28;20956;-83
2022/09/27 10:24:53;;;;;;;34.92;20.83;;;14.70;99.90;;;;;;5079654;28;20238;-83
2022/09/27 10:28:02;;;;;;;26.45;20.05;;;14.50;99.90;;;;;;5076126;28;20315;-83
2022/09/27 10:30:56;;;;;;;27.98;20.60;;;14.60;99.90;;;;;;5076578;28;20268;-83
2022/09/27 10:33:55;;;;;;;28.38;20.67;;;14.50;99.90;;;;;;5064943;28;20223;-83
2022/09/27 10:36:45;;;;;;;28.27;22.20;;;14.70;99.90;;;;;;5062560;28;20219;-82
2022/09/27 10:39:36;;;;;;;24.63;21.02;;;14.80;99.90;;;;;;5077623;28;20211;-83
2022/09/27 10:42:34;;;;;;;27.27;21.75;;;14.70;99.90;;;;;;5062583;28;20227;-82
2022/09/27 10:45:31;;;;;;;28.50;23.55;;;14.80;99.90;;;;;;5062742;28;20213;-82
2022/09/27 10:48:35;;;;;;;32.47;24.58;;;14.80;99.90;;;;;;5076917;28;20265;-83
2022/09/27 10:51:29;;;;;;;28.80;22.83;;;14.80;99.90;;;;;;5062169;28;20283;-82
2022/09/27 10:54:21;;;;;;;48.78;24.98;;;14.80;99.90;;;;;;5062826;28;20968;-83
2022/09/27 10:57:19;;;;;;;245.48;44.58;;;14.70;99.90;;;;;;5075759;28;20352;-83
2022/09/27 11:00:22;;;;;;;35.10;24.15;;;14.80;99.90;;;;;;5077509;28;20234;-83
2022/09/27 11:03:16;;;;;;;78.55;31.52;;;14.70;99.90;;;;;;5049268;28;20226;-83
2022/09/27 11:06:20;;;;;;;34.05;24.50;;;14.80;99.90;;;;;;5064577;28;20227;-83
2022/09/27 11:09:19;;;;;;;30.88;24.20;;;14.80;99.90;;;;;;5066326;28;20230;-82
2022/09/27 11:12:12;;;;;;;28.30;23.60;;;14.90;99.90;;;;;;5076889;28;20254;-83
2022/09/27 11:15:06;;;;;;;27.30;23.17;;;14.90;99.90;;;;;;5064624;28;20223;-82
2022/09/27 11:18:05;;;;;;;26.63;22.08;;;15.10;99.90;;;;;;5063716;28;20228;-81
2022/09/27 11:21:06;;;;;;;29.58;23.60;;;15.10;99.90;;;;;;5079980;28;20234;-83
2022/09/27 11:24:13;;;;;;;27.08;23.23;;;15.20;99.90;;;;;;5078554;28;20227;-82
2022/09/27 11:27:12;;;;;;;25.65;22.85;;;15.10;99.90;;;;;;5076723;28;20230;-82
2022/09/27 11:30:08;;;;;;;27.85;22.70;;;14.90;99.90;;;;;;5076341;28;20223;-84
2022/09/27 11:33:26;;;;;;;26.83;23.30;;;15.00;99.90;;;;;;5060340;28;20333;-82
2022/09/27 11:36:28;;;;;;;31.95;23.80;;;15.10;99.90;;;;;;5078161;28;20242;-83
2022/09/27 11:39:23;;;;;;;27.30;23.02;;;15.10;99.90;;;;;;5062390;28;20272;-82
2022/09/27 11:42:33;;;;;;;27.45;23.25;;;15.10;99.90;;;;;;5060898;28;20224;-82
2022/09/27 11:45:40;;;;;;;25.65;21.85;;;15.10;99.90;;;;;;5076752;28;20330;-82
2022/09/27 11:49:26;;;;;;;28.63;23.45;;;15.10;99.90;;;;;;5077838;28;20364;-82
2022/09/27 11:52:41;;;;;;;26.90;23.73;;;15.20;99.90;;;;;;5063325;28;20223;-81
2022/09/27 11:55:41;;;;;;;27.52;23.52;;;15.20;99.90;;;;;;5067414;28;20216;-81
2022/09/27 11:58:38;;;;;;;26.83;23.35;;;15.20;99.90;;;;;;5066446;28;20736;-81
2022/09/27 12:01:37;;;;;;;26.30;23.20;;;15.00;99.90;;;;;;5069161;28;20223;-81
2022/09/27 12:04:42;;;;;;;29.38;22.77;;;15.00;99.90;;;;;;5067191;28;20215;-79
2022/09/27 12:07:45;;;;;;;26.10;22.05;;;15.10;99.90;;;;;;5081140;28;20219;-79
2022/09/27 12:10:36;;;;;;;26.38;21.88;;;15.20;99.90;;;;;;5065523;28;20218;-79
2022/09/27 12:13:32;;;;;;;24.42;21.38;;;15.30;99.90;;;;;;5067928;28;20234;-79
2022/09/27 12:16:24;;;;;;;22.92;20.45;;;15.30;99.90;;;;;;5081057;28;20223;-79
2022/09/27 12:19:19;;;;;;;22.13;19.77;;;15.40;99.90;;;;;;5068618;28;20231;-79
2022/09/27 12:22:25;;;;;;;22.67;20.13;;;15.50;99.90;;;;;;5081884;28;20218;-79
2022/09/27 12:25:38;;;;;;;23.88;20.70;;;15.40;99.90;;;;;;5065526;28;20710;-78
2022/09/27 12:28:41;;;;;;;29.35;24.67;;;15.50;99.90;;;;;;5059204;28;21675;-80
2022/09/27 12:31:35;;;;;;;24.48;19.90;;;15.60;99.90;;;;;;5062933;28;20231;-79
2022/09/27 12:34:30;;;;;;;22.65;19.60;;;15.70;99.90;;;;;;5064953;28;20311;-79
2022/09/27 12:37:25;;;;;;;21.90;18.83;;;15.50;99.90;;;;;;5064814;28;20227;-78
2022/09/27 12:40:18;;;;;;;20.20;18.10;;;15.70;99.90;;;;;;5079290;28;21843;-78
2022/09/27 12:43:16;;;;;;;21.23;17.40;;;15.70;99.90;;;;;;5062162;28;20714;-84
2022/09/27 12:46:22;;;;;;;20.50;17.85;;;15.70;99.90;;;;;;5080862;28;20220;-84
2022/09/27 12:49:18;;;;;;;18.80;16.80;;;15.90;99.90;;;;;;5062604;28;20234;-86
2022/09/27 12:52:12;;;;;;;17.80;15.90;;;16.00;99.90;;;;;;5063511;28;20274;-83
2022/09/27 12:55:26;;;;;;;19.88;15.85;;;15.80;99.90;;;;;;5062213;28;20302;-82
2022/09/27 12:58:57;;;;;;;15.82;14.10;;;15.80;99.90;;;;;;5082085;28;20231;-82
2022/09/27 13:02:06;;;;;;;14.88;13.32;;;15.70;99.90;;;;;;5020138;28;20231;-82
2022/09/27 13:05:14;;;;;;;17.48;14.00;;;15.80;99.90;;;;;;5078392;28;20227;-84
2022/09/27 13:08:24;;;;;;;15.30;13.73;;;15.80;99.90;;;;;;5065991;28;20844;-81
2022/09/27 13:11:19;;;;;;;14.55;12.75;;;15.90;99.90;;;;;;5065316;28;20792;-83
2022/09/27 13:14:18;;;;;;;25.02;19.02;;;15.70;99.90;;;;;;5078656;28;20409;-83
2022/09/27 13:17:36;;;;;;;15.02;13.43;;;15.60;99.90;;;;;;5079948;28;20219;-82
2022/09/27 13:20:45;;;;;;;15.15;12.73;;;15.60;99.90;;;;;;5064379;28;20310;-84
2022/09/27 13:23:52;;;;;;;15.18;12.60;;;15.80;99.90;;;;;;5076815;28;20215;-82
2022/09/27 13:26:49;;;;;;;12.80;11.48;;;15.90;99.90;;;;;;5064455;28;20219;-82
2022/09/27 13:29:38;;;;;;;13.02;11.77;;;15.80;99.90;;;;;;5062657;28;20749;-83
2022/09/27 13:32:31;;;;;;;15.95;12.38;;;15.80;99.90;;;;;;5077621;28;20602;-82
2022/09/27 13:35:33;;;;;;;15.10;12.57;;;15.80;99.90;;;;;;5065118;28;20215;-84
2022/09/27 13:38:27;;;;;;;12.63;11.40;;;15.80;99.90;;;;;;5063527;28;20230;-83
2022/09/27 13:41:19;;;;;;;13.40;11.95;;;15.80;99.90;;;;;;5062921;28;20688;-82
2022/09/27 13:44:24;;;;;;;12.52;11.23;;;15.80;99.90;;;;;;5062318;28;20219;-82
2022/09/27 13:47:26;;;;;;;11.95;10.63;;;15.90;99.90;;;;;;5068131;28;20306;-82
2022/09/27 13:50:24;;;;;;;11.55;10.35;;;15.80;99.90;;;;;;5077742;28;20348;-83
2022/09/27 13:53:25;;;;;;;13.50;11.18;;;15.70;99.90;;;;;;5062482;28;20234;-82
2022/09/27 13:56:50;;;;;;;11.32;10.18;;;15.60;99.90;;;;;;5077144;28;20270;-82
2022/09/27 13:59:47;;;;;;;12.35;10.88;;;15.60;99.90;;;;;;5062227;28;20497;-84
2022/09/27 14:03:03;;;;;;;17.50;11.10;;;15.60;99.90;;;;;;5080063;28;20736;-83
2022/09/27 14:05:58;;;;;;;12.48;11.23;;;15.50;99.90;;;;;;5066670;28;20256;-83
2022/09/27 14:08:49;;;;;;;12.18;10.77;;;15.50;99.90;;;;;;5078093;28;20239;-86
2022/09/27 14:11:40;;;;;;;12.57;11.38;;;15.50;99.90;;;;;;5076256;28;20356;-83
2022/09/27 14:14:31;;;;;;;12.20;10.95;;;15.40;99.90;;;;;;5076746;28;20234;-84
2022/09/27 14:17:21;;;;;;;13.70;11.10;;;15.50;99.90;;;;;;5062607;28;20220;-83
2022/09/27 14:20:31;;;;;;;16.13;14.35;;;15.50;99.90;;;;;;5064409;28;20228;-83
2022/09/27 14:23:24;;;;;;;12.63;11.30;;;15.50;99.90;;;;;;5063023;28;20293;-83
2022/09/27 14:26:23;;;;;;;12.18;10.55;;;15.60;99.90;;;;;;5064616;28;20255;-82
2022/09/27 14:29:16;;;;;;;12.50;11.30;;;15.60;99.90;;;;;;5062602;28;20223;-84
2022/09/27 14:32:08;;;;;;;14.07;10.85;;;15.60;99.90;;;;;;5075800;28;20978;-83
2022/09/27 14:38:18;;;;;;;12.00;10.70;;;15.50;99.90;;;;;;5063749;28;20277;-83
2022/09/27 14:41:38;;;;;;;13.95;11.15;;;15.60;99.90;;;;;;5077703;28;20227;-82
2022/09/27 14:44:27;;;;;;;13.90;11.43;;;15.60;99.90;;;;;;5077706;28;20609;-83
2022/09/27 14:47:20;;;;;;;13.50;11.80;;;15.60;99.90;;;;;;5076674;28;20767;-83
2022/09/27 14:50:19;;;;;;;13.15;11.85;;;15.60;99.90;;;;;;5060301;28;20864;-83
2022/09/27 14:53:22;;;;;;;14.98;11.48;;;15.60;99.90;;;;;;5077186;28;20281;-82
2022/09/27 14:56:16;;;;;;;15.23;11.85;;;15.60;99.90;;;;;;5076125;28;21001;-84
2022/09/27 14:59:14;;;;;;;14.65;12.35;;;15.60;99.90;;;;;;5062165;28;20234;-83
2022/09/27 15:02:15;;;;;;;13.70;11.95;;;15.60;99.90;;;;;;5063239;28;20234;-83
2022/09/27 15:05:04;;;;;;;14.63;12.35;;;15.50;99.90;;;;;;5073429;28;20927;-83